Azamara Quest — V7DM6 — position and weather

sailwx.info

Track history (hours):
 
Tides and Currents Weather Stations Pressure Air Temp Water Temp Dewpoint Dewpoint Depression Visibility Wind Speed Wind Dir Waves Ship Positions

Azamara Quest

Last reported at 2017-Feb-10 01:26 UTC. Time now 2017-Mar-24 12:19 UTC.
Position N 09°11' W 079°53'.
Warning: this ship's position is 42 days out of date.

Length 184 m; draft 9.2 m.

Type: Ship. MMSI: 538005401.

Date/timePositionNaut miles runAvg speedWind from/ knotsBaromVisibWave heightAir tempDewpointWater temp
2017-Feb-10 01:26N 09°11' W 079°53'6 6.4
2017-Feb-10 00:33N 09°16' W 079°55'0 0.3
2017-Feb-09 23:32N 09°17' W 079°55'2 2.6
2017-Feb-09 22:33N 09°19' W 079°55'3 2.9
2017-Feb-09 21:32N 09°22' W 079°56'0 0.0
2017-Feb-09 20:32N 09°22' W 079°56'0 0.0
2017-Feb-09 19:32N 09°22' W 079°56'0 0.0
2017-Feb-09 18:32N 09°22' W 079°56'0 0.0
2017-Feb-09 17:32N 09°22' W 079°56'0 0.0
2017-Feb-09 16:32N 09°22' W 079°56'0 0.0
2017-Feb-09 15:32N 09°22' W 079°56'0 0.0
2017-Feb-09 14:32N 09°22' W 079°56'0 0.0
2017-Feb-09 13:32N 09°22' W 079°56'0 0.0
2017-Feb-09 12:32N 09°22' W 079°56'0 0.0
2017-Feb-09 11:32N 09°22' W 079°56'0 0.0
2017-Feb-09 10:32N 09°22' W 079°56'0 0.0
2017-Feb-09 09:32N 09°22' W 079°56'0 0.0
2017-Feb-09 08:32N 09°22' W 079°56'0 0.0
2017-Feb-09 07:32N 09°22' W 079°56'0 0.0
2017-Feb-09 06:32N 09°22' W 079°56'0 0.0
2017-Feb-09 05:32N 09°22' W 079°56'0 0.0
2017-Feb-09 04:32N 09°22' W 079°56'0 0.0
2017-Feb-09 03:29N 09°22' W 079°56'0 0.0
2017-Feb-09 02:32N 09°22' W 079°56'0 0.0
2017-Feb-09 01:32N 09°22' W 079°56'0 0.0
2017-Feb-09 00:32N 09°22' W 079°56'0 0.1
2017-Feb-08 23:31N 09°22' W 079°56'5 4.8
2017-Feb-08 22:34N 09°27' W 079°56'1 1.3
2017-Feb-08 21:32N 09°26' W 079°57'0 0.0
2017-Feb-08 20:32N 09°26' W 079°57'0 0.0
2017-Feb-08 19:32N 09°26' W 079°57'0 0.0
2017-Feb-08 18:32N 09°26' W 079°57'0 0.0
2017-Feb-08 17:32N 09°26' W 079°57'0 0.0
2017-Feb-08 16:32N 09°26' W 079°57'0 0.1
2017-Feb-08 15:26N 09°26' W 079°57'3 3.0
2017-Feb-08 14:33N 09°28' W 079°55'9 8.7
2017-Feb-08 13:32N 09°36' W 079°51'  
Track history (hours):
 
Tides and Currents Weather Stations Pressure Air Temp Water Temp Dewpoint Dewpoint Depression Visibility Wind Speed Wind Dir Waves Ship Positions

Azamara Quest

Last reported at 2017-Feb-10 01:26 UTC. Time now 2017-Mar-24 12:19 UTC.
Position N 09°11' W 079°53'.
Warning: this ship's position is 42 days out of date.

Length 184 m; draft 9.2 m.

Type: Ship. MMSI: 538005401.

Date/timePositionNaut miles runAvg speedWind from/ knotsBaromVisibWave heightAir tempDewpointWater temp
2017-Feb-10 01:26N 09°11' W 079°53'6 6.4
2017-Feb-10 00:33N 09°16' W 079°55'0 0.3
2017-Feb-09 23:32N 09°17' W 079°55'2 2.6
2017-Feb-09 22:33N 09°19' W 079°55'3 2.9
2017-Feb-09 21:32N 09°22' W 079°56'0 0.0
2017-Feb-09 20:32N 09°22' W 079°56'0 0.0
2017-Feb-09 19:32N 09°22' W 079°56'0 0.0
2017-Feb-09 18:32N 09°22' W 079°56'0 0.0
2017-Feb-09 17:32N 09°22' W 079°56'0 0.0
2017-Feb-09 16:32N 09°22' W 079°56'0 0.0
2017-Feb-09 15:32N 09°22' W 079°56'0 0.0
2017-Feb-09 14:32N 09°22' W 079°56'0 0.0
2017-Feb-09 13:32N 09°22' W 079°56'0 0.0
2017-Feb-09 12:32N 09°22' W 079°56'0 0.0
2017-Feb-09 11:32N 09°22' W 079°56'0 0.0
2017-Feb-09 10:32N 09°22' W 079°56'0 0.0
2017-Feb-09 09:32N 09°22' W 079°56'0 0.0
2017-Feb-09 08:32N 09°22' W 079°56'0 0.0
2017-Feb-09 07:32N 09°22' W 079°56'0 0.0
2017-Feb-09 06:32N 09°22' W 079°56'0 0.0
2017-Feb-09 05:32N 09°22' W 079°56'0 0.0
2017-Feb-09 04:32N 09°22' W 079°56'0 0.0
2017-Feb-09 03:29N 09°22' W 079°56'0 0.0
2017-Feb-09 02:32N 09°22' W 079°56'0 0.0
2017-Feb-09 01:32N 09°22' W 079°56'0 0.0
2017-Feb-09 00:32N 09°22' W 079°56'0 0.1
2017-Feb-08 23:31N 09°22' W 079°56'5 4.8
2017-Feb-08 22:34N 09°27' W 079°56'1 1.3
2017-Feb-08 21:32N 09°26' W 079°57'0 0.0
2017-Feb-08 20:32N 09°26' W 079°57'0 0.0
2017-Feb-08 19:32N 09°26' W 079°57'0 0.0
2017-Feb-08 18:32N 09°26' W 079°57'0 0.0
2017-Feb-08 17:32N 09°26' W 079°57'0 0.0
2017-Feb-08 16:32N 09°26' W 079°57'0 0.1
2017-Feb-08 15:26N 09°26' W 079°57'3 3.0
2017-Feb-08 14:33N 09°28' W 079°55'9 8.7
2017-Feb-08 13:32N 09°36' W 079°51'  

Dump ship's entire track history